createdAt,value
2019-02-12T00:01:35.185Z,9.93
2019-02-12T00:04:07.150Z,11.27
2019-02-12T00:06:39.166Z,9.57
2019-02-12T00:09:11.223Z,12.10
2019-02-12T00:11:43.195Z,9.57
2019-02-12T00:14:15.172Z,8.27
2019-02-12T00:16:47.174Z,7.70
2019-02-12T00:19:19.146Z,10.03
2019-02-12T00:21:51.145Z,8.33
2019-02-12T00:24:23.118Z,7.40
2019-02-12T00:26:55.138Z,6.10
2019-02-12T00:29:27.107Z,8.83
2019-02-12T00:31:59.104Z,7.70
2019-02-12T00:34:31.256Z,7.67
2019-02-12T00:37:03.184Z,7.67
2019-02-12T00:39:36.579Z,8.03
2019-02-12T00:42:08.585Z,8.47
2019-02-12T00:44:40.564Z,9.63
2019-02-12T00:47:12.555Z,9.93
2019-02-12T00:49:44.612Z,9.40
2019-02-12T00:52:16.975Z,7.60
2019-02-12T00:54:50.405Z,8.63
2019-02-12T00:57:23.123Z,7.03
2019-02-12T00:59:55.874Z,9.80
2019-02-12T01:02:28.708Z,8.90
2019-02-12T01:05:00.802Z,5.97
2019-02-12T01:07:32.775Z,7.47
2019-02-12T01:10:06.091Z,8.53
2019-02-12T01:12:38.051Z,9.33
2019-02-12T01:15:11.058Z,7.27
2019-02-12T01:17:43.076Z,9.73
2019-02-12T01:20:15.059Z,10.23
2019-02-12T01:22:47.013Z,8.23
2019-02-12T01:25:18.997Z,9.93
2019-02-12T01:27:50.948Z,9.10
2019-02-12T01:30:22.950Z,10.13
2019-02-12T01:32:54.958Z,8.17
2019-02-12T01:35:26.948Z,9.53
2019-02-12T01:37:58.918Z,9.70
2019-02-12T01:40:30.936Z,6.57
2019-02-12T01:43:02.921Z,11.30
2019-02-12T01:45:34.975Z,8.90
2019-02-12T01:48:06.939Z,9.40
2019-02-12T01:50:38.995Z,10.33
2019-02-12T01:53:10.989Z,12.80
2019-02-12T01:55:42.979Z,12.53
2019-02-12T01:58:14.962Z,11.70
2019-02-12T02:00:46.953Z,12.10
2019-02-12T02:03:18.983Z,7.83
2019-02-12T02:05:50.962Z,10.90
2019-02-12T02:08:22.953Z,11.77
2019-02-12T02:10:54.913Z,11.20
2019-02-12T02:13:26.896Z,9.93
2019-02-12T02:15:58.870Z,8.03
2019-02-12T02:18:30.881Z,11.57
2019-02-12T02:21:02.899Z,11.50
2019-02-12T02:23:34.878Z,10.07
2019-02-12T02:26:06.856Z,12.77
2019-02-12T02:28:38.817Z,9.93
2019-02-12T02:31:10.789Z,10.47
2019-02-12T02:33:42.769Z,11.33
2019-02-12T02:36:14.756Z,11.03
2019-02-12T02:38:46.747Z,15.43
2019-02-12T02:41:38.179Z,12.87
2019-02-12T02:44:10.192Z,11.27
2019-02-12T02:46:42.149Z,13.93
2019-02-12T02:49:14.171Z,15.53
2019-02-12T02:51:53.646Z,12.40
2019-02-12T02:54:20.062Z,12.53
2019-02-12T02:56:52.037Z,14.97
2019-02-12T02:59:24.031Z,14.33
2019-02-12T03:01:56.058Z,13.50
2019-02-12T03:04:28.088Z,14.87
2019-02-12T03:07:00.053Z,12.97
2019-02-12T03:09:32.054Z,10.93
2019-02-12T03:12:04.064Z,11.93
2019-02-12T03:14:36.056Z,11.87
2019-02-12T03:17:08.041Z,13.20
2019-02-12T03:19:40.063Z,14.17
2019-02-12T03:22:12.038Z,16.13
2019-02-12T03:24:44.052Z,11.13
2019-02-12T03:27:16.044Z,13.30
2019-02-12T03:29:48.115Z,12.83
2019-02-12T03:32:20.090Z,14.20
2019-02-12T03:34:52.216Z,12.23
2019-02-12T03:37:24.221Z,11.77
2019-02-12T03:39:56.210Z,14.33
2019-02-12T03:42:28.196Z,14.47
2019-02-12T03:45:00.499Z,9.03
2019-02-12T03:47:34.084Z,10.00
2019-02-12T03:50:06.779Z,11.20
2019-02-12T03:52:38.744Z,13.73
2019-02-12T03:55:10.892Z,13.97
2019-02-12T03:57:42.923Z,9.80
2019-02-12T04:00:14.933Z,8.70
2019-02-12T04:03:06.643Z,10.10
2019-02-12T04:05:39.026Z,10.73
2019-02-12T04:08:11.019Z,10.43
2019-02-12T04:10:42.997Z,13.27
2019-02-12T04:13:14.975Z,10.73
2019-02-12T04:15:47.073Z,11.60
2019-02-12T04:18:19.073Z,12.53
2019-02-12T04:20:51.103Z,10.93
2019-02-12T04:23:23.087Z,14.00
2019-02-12T04:25:55.156Z,17.70
2019-02-12T04:28:27.072Z,13.80
2019-02-12T04:33:58.209Z,13.10
2019-02-12T04:36:30.195Z,15.13
2019-02-12T04:41:41.857Z,13.93
2019-02-12T04:44:13.845Z,12.93
2019-02-12T04:46:45.852Z,13.73
2019-02-12T04:49:17.841Z,12.80
2019-02-12T04:51:49.832Z,12.93
2019-02-12T04:54:21.853Z,12.23
2019-02-12T04:56:53.880Z,13.23
2019-02-12T04:59:25.885Z,12.37
2019-02-12T05:01:57.984Z,14.63
2019-02-12T05:04:29.986Z,15.30
2019-02-12T05:07:02.042Z,14.63
2019-02-12T05:09:34.974Z,13.77
2019-02-12T05:12:06.967Z,12.37
2019-02-12T05:14:38.977Z,13.73
2019-02-12T05:17:10.961Z,15.43
2019-02-12T05:19:42.970Z,11.80
2019-02-12T05:22:14.971Z,11.87
2019-02-12T05:24:46.966Z,13.13
2019-02-12T05:27:18.991Z,11.13
2019-02-12T05:29:51.012Z,12.10
2019-02-12T05:32:22.974Z,13.70
2019-02-12T05:34:55.918Z,14.37
2019-02-12T05:37:28.824Z,13.87
2019-02-12T05:40:00.800Z,11.33
2019-02-12T05:42:34.016Z,12.27
2019-02-12T05:45:25.530Z,13.00
2019-02-12T05:47:57.532Z,11.00
2019-02-12T05:50:29.541Z,15.97
2019-02-12T05:53:01.528Z,11.37
2019-02-12T05:55:33.532Z,10.60
2019-02-12T05:58:05.494Z,15.60
2019-02-12T06:00:37.507Z,10.97
2019-02-12T06:03:09.522Z,13.43
2019-02-12T06:05:41.548Z,12.90
2019-02-12T06:08:13.500Z,13.17
2019-02-12T06:10:45.521Z,14.83
2019-02-12T06:13:17.497Z,14.53
2019-02-12T06:15:49.491Z,16.47
2019-02-12T06:18:21.472Z,13.07
2019-02-12T06:20:53.493Z,16.33
2019-02-12T06:23:25.440Z,15.10
2019-02-12T06:25:57.461Z,13.57
2019-02-12T06:28:29.487Z,16.60
2019-02-12T06:31:01.487Z,16.47
2019-02-12T06:33:33.545Z,16.53
2019-02-12T06:36:05.614Z,11.13
2019-02-12T06:38:37.561Z,14.33
2019-02-12T06:41:09.614Z,13.30
2019-02-12T06:43:41.594Z,13.03
2019-02-12T06:46:13.629Z,15.60
2019-02-12T06:48:45.600Z,15.53
2019-02-12T06:51:17.618Z,14.47
2019-02-12T06:53:49.585Z,14.03
2019-02-12T06:56:21.578Z,14.93
2019-02-12T06:58:53.582Z,11.47
2019-02-12T07:01:25.596Z,14.63
2019-02-12T07:03:59.963Z,14.00
2019-02-12T07:06:54.568Z,11.97
2019-02-12T07:09:38.092Z,15.40
2019-02-12T07:12:37.200Z,10.03
2019-02-12T07:15:20.096Z,12.63
2019-02-12T07:18:44.398Z,13.83
2019-02-12T07:21:47.208Z,14.93
2019-02-12T07:25:13.276Z,21.23
2019-02-12T07:28:11.102Z,18.37
2019-02-12T07:31:30.146Z,17.13
2019-02-12T07:34:37.463Z,14.40
2019-02-12T07:37:50.184Z,15.67
2019-02-12T07:41:18.448Z,15.53
2019-02-12T07:44:12.310Z,16.83
2019-02-12T07:47:19.867Z,13.97
2019-02-12T07:50:23.530Z,16.93
2019-02-12T07:53:31.450Z,18.50
2019-02-12T07:56:25.273Z,13.13
2019-02-12T07:59:38.298Z,13.80
2019-02-12T08:02:33.776Z,15.53
2019-02-12T08:06:10.317Z,14.03
2019-02-12T08:09:29.180Z,16.40
2019-02-12T08:12:33.172Z,14.37
2019-02-12T08:15:50.238Z,15.77
2019-02-12T08:19:22.554Z,16.10
2019-02-12T08:22:33.908Z,14.33
2019-02-12T08:25:18.131Z,13.70
2019-02-12T08:28:31.444Z,15.00
2019-02-12T08:31:12.043Z,19.10
2019-02-12T08:34:19.827Z,16.73
2019-02-12T08:37:21.281Z,14.47
2019-02-12T08:40:24.466Z,12.03
2019-02-12T08:43:42.291Z,11.60
2019-02-12T08:46:58.691Z,14.40
2019-02-12T08:50:02.633Z,12.50
2019-02-12T08:52:59.390Z,14.30
2019-02-12T08:56:10.449Z,14.67
2019-02-12T08:59:12.577Z,14.27
2019-02-12T09:02:41.757Z,16.37
2019-02-12T09:05:48.807Z,16.63
2019-02-12T09:09:04.050Z,14.03
2019-02-12T09:12:03.340Z,15.60
2019-02-12T09:14:59.003Z,12.30
2019-02-12T09:18:22.175Z,13.10
2019-02-12T09:21:14.102Z,14.73
2019-02-12T09:24:24.527Z,15.03
2019-02-12T09:27:18.123Z,13.67
2019-02-12T09:30:32.031Z,10.40
2019-02-12T09:33:35.697Z,16.53
2019-02-12T09:36:36.031Z,13.30
2019-02-12T09:39:36.797Z,12.27
2019-02-12T09:42:44.504Z,11.67
2019-02-12T09:45:49.442Z,12.27
2019-02-12T09:48:38.327Z,12.73
2019-02-12T09:51:45.856Z,10.30
2019-02-12T09:54:59.649Z,11.87
2019-02-12T09:57:48.231Z,9.00
2019-02-12T10:00:57.012Z,11.93
2019-02-12T10:04:18.454Z,9.77
2019-02-12T10:07:30.293Z,10.50
2019-02-12T10:10:43.090Z,11.67
2019-02-12T10:13:46.420Z,12.00
2019-02-12T10:16:57.041Z,11.73
2019-02-12T10:19:46.235Z,9.63
2019-02-12T10:23:00.148Z,11.60
2019-02-12T10:25:42.904Z,10.60
2019-02-12T10:28:48.419Z,11.53
2019-02-12T10:31:40.395Z,11.30
2019-02-12T10:34:12.388Z,10.97
2019-02-12T10:36:44.357Z,9.87
2019-02-12T10:39:16.714Z,9.53
2019-02-12T10:41:48.690Z,9.13
2019-02-12T10:44:20.733Z,10.30
2019-02-12T10:46:52.729Z,9.07
2019-02-12T10:49:24.817Z,7.27
2019-02-12T10:51:56.836Z,5.67
2019-02-12T10:54:28.855Z,7.87
2019-02-12T10:57:00.830Z,7.37
2019-02-12T10:59:32.874Z,7.80
2019-02-12T11:02:04.885Z,9.93
2019-02-12T11:04:36.951Z,6.33
2019-02-12T11:07:08.988Z,8.33
2019-02-12T11:09:40.967Z,8.50
2019-02-12T11:12:12.988Z,5.43
2019-02-12T11:14:44.996Z,7.50
2019-02-12T11:17:17.004Z,6.20
2019-02-12T11:19:49.048Z,8.33
2019-02-12T11:22:21.018Z,8.33
2019-02-12T11:24:53.033Z,9.23
2019-02-12T11:27:26.066Z,8.20
2019-02-12T11:29:58.052Z,6.27
2019-02-12T11:32:30.095Z,6.20
2019-02-12T11:35:02.239Z,6.77
2019-02-12T11:37:34.274Z,7.93
2019-02-12T11:40:06.981Z,8.43
2019-02-12T11:42:39.027Z,9.50
2019-02-12T11:45:11.002Z,8.73
2019-02-12T11:47:43.009Z,10.07
2019-02-12T11:50:14.979Z,7.73
2019-02-12T11:52:47.031Z,8.00
2019-02-12T11:55:19.021Z,8.17
2019-02-12T11:57:51.066Z,8.47
2019-02-12T12:03:19.960Z,7.30
2019-02-12T12:05:51.975Z,8.37
2019-02-12T12:08:23.999Z,7.77
2019-02-12T12:10:56.008Z,11.27
2019-02-12T12:13:28.010Z,10.30
2019-02-12T12:16:00.004Z,9.17
2019-02-12T12:18:32.042Z,8.10
2019-02-12T12:21:04.059Z,6.93
2019-02-12T12:23:36.083Z,9.60
2019-02-12T12:26:08.131Z,7.43
2019-02-12T12:28:40.166Z,6.60
2019-02-12T12:31:12.154Z,8.40
2019-02-12T12:33:44.149Z,11.40
2019-02-12T12:36:16.153Z,4.63
2019-02-12T12:38:48.186Z,6.87
2019-02-12T12:41:20.183Z,7.50
2019-02-12T12:43:52.197Z,8.67
2019-02-12T12:46:24.188Z,9.40
2019-02-12T12:48:56.231Z,10.30
2019-02-12T12:51:28.207Z,9.63
2019-02-12T12:54:00.260Z,10.40
2019-02-12T12:56:32.245Z,9.50
2019-02-12T12:59:04.234Z,10.20
2019-02-12T13:01:36.233Z,9.67
2019-02-12T13:04:08.285Z,8.00
2019-02-12T13:06:40.286Z,11.93
2019-02-12T13:09:12.278Z,6.73
2019-02-12T13:11:44.284Z,11.17
2019-02-12T13:14:16.304Z,11.80
2019-02-12T13:16:48.404Z,11.73
2019-02-12T13:19:20.404Z,15.93
2019-02-12T13:21:52.450Z,9.30
2019-02-12T13:24:24.494Z,8.50
2019-02-12T13:26:56.538Z,7.87
2019-02-12T13:32:22.112Z,7.00
2019-02-12T13:34:54.145Z,8.80
2019-02-12T13:37:26.172Z,10.80
2019-02-12T13:39:58.204Z,8.50
2019-02-12T13:42:30.249Z,8.67
2019-02-12T13:45:02.263Z,7.87
2019-02-12T13:47:34.266Z,7.43
2019-02-12T13:50:06.935Z,7.87
2019-02-12T13:52:38.969Z,14.43
2019-02-12T13:55:16.910Z,7.33
2019-02-12T13:57:45.018Z,5.70
2019-02-12T14:00:17.002Z,9.17
2019-02-12T14:02:49.057Z,7.73
2019-02-12T14:05:21.109Z,10.00
2019-02-12T14:07:53.119Z,8.50
2019-02-12T14:10:25.090Z,6.93
2019-02-12T14:12:57.112Z,10.33
2019-02-12T14:15:29.160Z,6.47
2019-02-12T14:18:01.219Z,9.30
2019-02-12T14:20:33.231Z,7.27
2019-02-12T14:23:05.238Z,8.57
2019-02-12T14:25:37.267Z,7.97
2019-02-12T14:28:09.322Z,6.53
2019-02-12T14:30:41.297Z,7.27
2019-02-12T14:33:13.358Z,5.43
2019-02-12T14:35:45.456Z,6.97
2019-02-12T14:38:17.450Z,9.90
2019-02-12T14:40:49.491Z,7.43
2019-02-12T14:43:21.524Z,6.93
2019-02-12T14:45:53.544Z,7.77
2019-02-12T14:48:25.586Z,6.53
2019-02-12T14:50:57.590Z,7.30
2019-02-12T14:53:29.646Z,11.53
2019-02-12T14:56:01.704Z,6.80
2019-02-12T14:58:33.744Z,7.20
2019-02-12T15:01:05.795Z,9.60
2019-02-12T15:06:36.856Z,9.40
2019-02-12T15:09:08.906Z,5.83
2019-02-12T15:11:40.946Z,8.13
2019-02-12T15:14:12.979Z,8.13
2019-02-12T15:16:45.020Z,9.53
2019-02-12T15:19:17.045Z,8.77
2019-02-12T15:21:49.035Z,5.83
2019-02-12T15:24:21.102Z,8.30
2019-02-12T15:26:53.132Z,9.70
2019-02-12T15:29:25.260Z,8.13
2019-02-12T15:31:57.244Z,8.83
2019-02-12T15:34:29.294Z,7.47
2019-02-12T15:37:01.305Z,6.63
2019-02-12T15:39:33.425Z,6.30
2019-02-12T15:42:05.471Z,7.37
2019-02-12T15:44:37.505Z,6.37
2019-02-12T15:47:09.571Z,7.33
2019-02-12T15:49:41.713Z,8.50
2019-02-12T15:52:15.534Z,8.03
2019-02-12T15:54:47.711Z,7.93
2019-02-12T15:57:19.744Z,9.40
2019-02-12T15:59:52.274Z,8.73
2019-02-12T16:02:25.830Z,6.43
2019-02-12T16:04:57.835Z,11.83
2019-02-12T16:07:29.947Z,9.97
2019-02-12T16:10:01.960Z,7.20
2019-02-12T16:12:33.984Z,8.30
2019-02-12T16:15:08.520Z,15.37
2019-02-12T16:17:40.582Z,14.53
2019-02-12T16:20:12.718Z,10.63
2019-02-12T16:22:44.766Z,10.13
2019-02-12T16:25:16.773Z,7.37
2019-02-12T16:27:48.803Z,9.73
2019-02-12T16:30:20.841Z,10.10
2019-02-12T16:35:30.954Z,9.57
2019-02-12T16:38:03.118Z,9.20
2019-02-12T16:40:35.112Z,8.20
2019-02-12T16:43:07.203Z,8.53
2019-02-12T16:46:00.391Z,7.57
2019-02-12T16:48:32.522Z,7.93
2019-02-12T16:51:04.520Z,12.97
2019-02-12T16:53:36.549Z,9.33
2019-02-12T16:56:08.707Z,10.50
2019-02-12T16:58:40.680Z,9.40
2019-02-12T17:01:12.678Z,7.53
2019-02-12T17:03:44.850Z,8.53
2019-02-12T17:06:16.858Z,9.90
2019-02-12T17:08:48.899Z,7.37
2019-02-12T17:11:20.898Z,8.53
2019-02-12T17:13:53.747Z,8.47
2019-02-12T17:16:25.749Z,6.63
2019-02-12T17:18:57.832Z,5.83
2019-02-12T17:21:29.820Z,9.07
2019-02-12T17:24:01.909Z,8.73
2019-02-12T17:26:33.991Z,9.60
2019-02-12T17:29:05.995Z,8.50
2019-02-12T17:31:37.985Z,9.63
2019-02-12T17:34:10.040Z,6.33
2019-02-12T17:36:42.019Z,8.37
2019-02-12T17:39:14.059Z,9.17
2019-02-12T17:41:46.372Z,11.60
2019-02-12T17:44:18.400Z,10.23
2019-02-12T17:46:50.399Z,10.87
2019-02-12T17:49:26.578Z,9.27
2019-02-12T17:51:58.610Z,11.87
2019-02-12T17:54:31.029Z,20.60
2019-02-12T17:57:06.047Z,10.63
2019-02-12T17:59:38.479Z,14.67
2019-02-12T18:02:10.485Z,15.50
2019-02-12T18:04:42.637Z,24.90
2019-02-12T18:07:14.717Z,57.37
2019-02-12T18:09:46.981Z,79.50
2019-02-12T18:12:19.010Z,73.60
2019-02-12T18:14:51.117Z,53.13
2019-02-12T18:17:23.145Z,32.83
2019-02-12T18:19:55.479Z,24.27
2019-02-12T18:22:27.616Z,20.03
2019-02-12T18:24:59.656Z,15.17
2019-02-12T18:27:31.736Z,15.40
2019-02-12T18:30:05.433Z,12.23
2019-02-12T18:32:37.609Z,12.23
2019-02-12T18:35:09.638Z,11.77
2019-02-12T18:37:41.733Z,12.57
2019-02-12T18:40:13.792Z,12.30
2019-02-12T18:42:45.973Z,11.57
2019-02-12T18:45:18.132Z,9.20
2019-02-12T18:47:50.184Z,8.23
2019-02-12T18:50:22.256Z,9.97
2019-02-12T18:52:54.341Z,9.43
2019-02-12T18:55:26.352Z,11.20
2019-02-12T18:57:58.456Z,11.40
2019-02-12T19:00:30.533Z,8.00
2019-02-12T19:03:02.660Z,8.37
2019-02-12T19:05:34.812Z,14.37
2019-02-12T19:08:06.958Z,14.77
2019-02-12T19:10:38.998Z,16.97
2019-02-12T19:13:15.028Z,13.70
2019-02-12T19:15:47.036Z,15.13
2019-02-12T19:18:24.246Z,10.97
2019-02-12T19:20:56.279Z,23.43
2019-02-12T19:23:28.471Z,17.73
2019-02-12T19:26:00.507Z,20.00
2019-02-12T19:28:32.637Z,22.07
2019-02-12T19:31:04.688Z,25.10
2019-02-12T19:33:36.791Z,31.37
2019-02-12T19:36:08.903Z,26.17
2019-02-12T19:38:41.128Z,18.53
2019-02-12T19:41:13.294Z,18.37
2019-02-12T19:43:45.496Z,18.67
2019-02-12T19:46:17.592Z,19.07
2019-02-12T19:48:49.877Z,23.03
2019-02-12T19:51:21.955Z,11.83
2019-02-12T19:53:54.085Z,7.50
2019-02-12T19:56:26.162Z,6.87
2019-02-12T19:58:58.279Z,7.83
2019-02-12T20:01:30.371Z,7.73
2019-02-12T20:04:02.462Z,8.93
2019-02-12T20:06:34.539Z,7.23
2019-02-12T20:09:13.458Z,10.87
2019-02-12T20:11:45.541Z,10.33
2019-02-12T20:14:17.686Z,9.37
2019-02-12T20:16:49.862Z,8.47
2019-02-12T20:19:22.004Z,10.97
2019-02-12T20:21:54.100Z,7.07
2019-02-12T20:24:26.227Z,11.63
2019-02-12T20:27:06.229Z,10.70
2019-02-12T20:29:32.180Z,17.17
2019-02-12T20:32:04.292Z,17.87
2019-02-12T20:34:36.290Z,14.20
2019-02-12T20:37:08.459Z,19.90
2019-02-12T20:39:40.590Z,76.20
2019-02-12T20:42:12.643Z,86.90
2019-02-12T20:44:47.187Z,84.33
2019-02-12T20:47:19.087Z,19.60
2019-02-12T20:49:51.261Z,15.20
2019-02-12T20:52:23.309Z,26.93
2019-02-12T20:54:55.703Z,18.30
2019-02-12T20:57:27.731Z,16.53
2019-02-12T20:59:59.882Z,47.00
2019-02-12T21:02:31.970Z,19.37
2019-02-12T21:05:05.828Z,16.10
2019-02-12T21:07:38.197Z,13.87
2019-02-12T21:10:12.086Z,12.53
2019-02-12T21:12:44.283Z,13.87
2019-02-12T21:15:19.827Z,12.00
2019-02-12T21:17:51.953Z,12.80
2019-02-12T21:20:23.999Z,15.13
2019-02-12T21:22:56.101Z,11.50
2019-02-12T21:25:28.227Z,11.53
2019-02-12T21:28:00.532Z,11.23
2019-02-12T21:30:32.569Z,15.80
2019-02-12T21:33:04.613Z,16.20
2019-02-12T21:35:39.592Z,15.67
2019-02-12T21:38:14.606Z,12.57
2019-02-12T21:40:46.804Z,10.47
2019-02-12T21:43:20.592Z,11.90
2019-02-12T21:45:52.599Z,14.77
2019-02-12T21:48:25.310Z,8.60
2019-02-12T21:51:01.114Z,11.53
2019-02-12T21:53:35.061Z,9.93
2019-02-12T21:56:07.116Z,11.13
2019-02-12T21:58:39.154Z,10.33
2019-02-12T22:01:11.157Z,9.33
2019-02-12T22:03:43.198Z,10.37
2019-02-12T22:06:15.294Z,10.10
2019-02-12T22:08:47.306Z,8.43
2019-02-12T22:11:19.285Z,10.47
2019-02-12T22:13:51.351Z,17.47
2019-02-12T22:16:23.367Z,14.00
2019-02-12T22:18:55.414Z,11.77
2019-02-12T22:21:27.410Z,13.03
2019-02-12T22:23:59.466Z,9.90
2019-02-12T22:26:31.500Z,9.27
2019-02-12T22:29:03.557Z,11.17
2019-02-12T22:31:35.535Z,8.83
2019-02-12T22:34:08.353Z,7.97
2019-02-12T22:36:40.379Z,9.80
2019-02-12T22:39:12.703Z,8.47
2019-02-12T22:41:44.724Z,9.63
2019-02-12T22:44:16.744Z,9.37
2019-02-12T22:46:48.769Z,10.80
2019-02-12T22:49:21.011Z,9.07
2019-02-12T22:51:53.112Z,10.10
2019-02-12T22:54:25.103Z,10.27
2019-02-12T22:56:57.085Z,9.00
2019-02-12T22:59:29.076Z,10.13
2019-02-12T23:02:01.117Z,8.20
2019-02-12T23:04:33.566Z,10.97
2019-02-12T23:07:05.571Z,9.43
2019-02-12T23:09:37.555Z,9.63
2019-02-12T23:12:09.579Z,11.37
2019-02-12T23:14:41.614Z,11.00
2019-02-12T23:17:13.657Z,11.17
2019-02-12T23:19:46.038Z,12.07
2019-02-12T23:22:18.033Z,10.93
2019-02-12T23:24:50.063Z,10.53
2019-02-12T23:27:22.103Z,11.87
2019-02-12T23:29:54.118Z,11.60
2019-02-12T23:32:26.218Z,9.33
2019-02-12T23:34:58.199Z,12.93
2019-02-12T23:37:30.200Z,13.53
2019-02-12T23:40:02.205Z,9.97
2019-02-12T23:42:34.227Z,12.57
2019-02-12T23:45:06.337Z,10.13
2019-02-12T23:47:38.292Z,9.27
2019-02-12T23:50:10.283Z,12.27
2019-02-12T23:52:42.308Z,11.20
2019-02-12T23:55:14.303Z,10.87
2019-02-12T23:57:46.311Z,12.63
